createdAt,value
2017-07-04T00:00:43.440Z,4.95
2017-07-04T00:03:10.147Z,5.07
2017-07-04T00:05:36.788Z,5.00
2017-07-04T00:08:03.530Z,4.97
2017-07-04T00:10:30.278Z,5.22
2017-07-04T00:12:57.015Z,5.93
2017-07-04T00:15:23.754Z,5.45
2017-07-04T00:17:50.480Z,6.40
2017-07-04T00:20:17.138Z,5.80
2017-07-04T00:22:43.805Z,5.50
2017-07-04T00:25:10.524Z,6.15
2017-07-04T00:27:37.263Z,5.82
2017-07-04T00:30:03.950Z,4.68
2017-07-04T00:32:30.615Z,5.80
2017-07-04T00:34:57.252Z,4.55
2017-07-04T00:37:24.003Z,5.82
2017-07-04T00:39:50.644Z,5.43
2017-07-04T00:42:17.384Z,5.22
2017-07-04T00:44:44.050Z,5.68
2017-07-04T00:47:10.778Z,6.00
2017-07-04T00:49:37.420Z,5.75
2017-07-04T00:52:04.115Z,5.80
2017-07-04T00:54:30.774Z,5.97
2017-07-04T00:56:57.422Z,5.65
2017-07-04T00:59:24.161Z,6.00
2017-07-04T01:01:50.822Z,5.65
2017-07-04T01:04:17.550Z,5.97
2017-07-04T01:06:44.306Z,5.47
2017-07-04T01:09:10.962Z,5.12
2017-07-04T01:11:37.677Z,5.37
2017-07-04T01:14:04.417Z,5.20
2017-07-04T01:16:31.055Z,5.00
2017-07-04T01:18:57.797Z,5.40
2017-07-04T01:21:24.456Z,5.60
2017-07-04T01:23:51.183Z,6.68
2017-07-04T01:26:17.918Z,5.60
2017-07-04T01:28:44.679Z,6.35
2017-07-04T01:31:11.338Z,6.22
2017-07-04T01:33:37.982Z,6.70
2017-07-04T01:36:04.682Z,6.35
2017-07-04T01:38:31.323Z,7.60
2017-07-04T01:40:57.975Z,6.87
2017-07-04T01:43:24.701Z,7.68
2017-07-04T01:45:51.453Z,7.62
2017-07-04T01:48:18.191Z,7.80
2017-07-04T01:50:44.864Z,7.05
2017-07-04T01:53:11.504Z,7.72
2017-07-04T01:55:38.158Z,8.40
2017-07-04T01:58:04.843Z,7.68
2017-07-04T02:00:31.502Z,7.18
2017-07-04T02:02:58.223Z,7.00
2017-07-04T02:05:24.892Z,8.65
2017-07-04T02:07:51.551Z,7.45
2017-07-04T02:10:18.210Z,7.05
2017-07-04T02:12:44.897Z,7.85
2017-07-04T02:15:11.625Z,7.78
2017-07-04T02:17:38.280Z,8.15
2017-07-04T02:20:04.980Z,9.30
2017-07-04T02:22:31.626Z,8.18
2017-07-04T02:24:58.799Z,7.90
2017-07-04T02:27:25.464Z,6.62
2017-07-04T02:29:52.108Z,7.30
2017-07-04T02:32:18.804Z,7.05
2017-07-04T02:34:45.480Z,6.90
2017-07-04T02:37:12.124Z,6.97
2017-07-04T02:39:38.767Z,7.47
2017-07-04T02:42:05.570Z,7.12
2017-07-04T02:44:32.226Z,7.50
2017-07-04T02:46:58.872Z,6.72
2017-07-04T02:49:25.599Z,6.55
2017-07-04T02:51:52.328Z,6.90
2017-07-04T02:54:19.087Z,5.75
2017-07-04T02:56:45.786Z,5.85
2017-07-04T02:59:12.439Z,6.55
2017-07-04T03:01:39.097Z,7.35
2017-07-04T03:04:05.823Z,6.57
2017-07-04T03:06:32.465Z,6.05
2017-07-04T03:08:59.127Z,5.40
2017-07-04T03:11:25.867Z,6.95
2017-07-04T03:13:52.591Z,6.80
2017-07-04T03:16:19.333Z,6.30
2017-07-04T03:18:46.015Z,6.18
2017-07-04T03:21:12.665Z,6.93
2017-07-04T03:23:39.320Z,7.03
2017-07-04T03:26:06.014Z,6.70
2017-07-04T03:28:32.660Z,6.47
2017-07-04T03:30:59.308Z,6.57
2017-07-04T03:33:25.989Z,5.43
2017-07-04T03:35:52.660Z,5.60
2017-07-04T03:38:19.315Z,5.57
2017-07-04T03:40:46.052Z,7.35
2017-07-04T03:43:12.715Z,6.80
2017-07-04T03:45:39.427Z,7.37
2017-07-04T03:48:06.152Z,5.82
2017-07-04T03:50:32.799Z,7.43
2017-07-04T03:52:59.441Z,7.80
2017-07-04T03:55:26.131Z,12.13
2017-07-04T03:57:52.812Z,6.60
2017-07-04T04:00:19.466Z,6.07
2017-07-04T04:02:46.193Z,8.25
2017-07-04T04:05:12.952Z,6.70
2017-07-04T04:07:39.618Z,8.25
2017-07-04T04:10:06.292Z,6.10
2017-07-04T04:12:32.958Z,5.55
2017-07-04T04:14:59.703Z,5.43
2017-07-04T04:17:26.433Z,6.03
2017-07-04T04:19:53.081Z,5.25
2017-07-04T04:22:19.835Z,5.07
2017-07-04T04:24:46.575Z,5.65
2017-07-04T04:27:13.220Z,7.32
2017-07-04T04:29:39.948Z,4.93
2017-07-04T04:32:06.689Z,5.07
2017-07-04T04:34:33.425Z,5.40
2017-07-04T04:37:00.065Z,5.40
2017-07-04T04:39:26.766Z,5.47
2017-07-04T04:41:53.458Z,4.87
2017-07-04T04:44:20.199Z,4.70
2017-07-04T04:46:46.942Z,5.97
2017-07-04T04:49:13.592Z,7.57
2017-07-04T04:51:40.327Z,6.15
2017-07-04T04:54:07.004Z,5.70
2017-07-04T04:56:33.648Z,5.10
2017-07-04T04:59:00.302Z,5.90
2017-07-04T05:01:26.985Z,7.37
2017-07-04T05:03:53.642Z,6.87
2017-07-04T05:06:20.306Z,5.97
2017-07-04T05:08:47.007Z,6.10
2017-07-04T05:11:13.747Z,6.35
2017-07-04T05:13:40.397Z,4.57
2017-07-04T05:16:07.109Z,5.85
2017-07-04T05:18:33.749Z,6.37
2017-07-04T05:21:00.515Z,6.43
2017-07-04T05:23:27.232Z,6.62
2017-07-04T05:25:53.990Z,5.85
2017-07-04T05:28:20.633Z,7.95
2017-07-04T05:30:47.331Z,6.20
2017-07-04T05:33:14.002Z,10.63
2017-07-04T05:35:40.668Z,6.82
2017-07-04T05:38:07.335Z,6.62
2017-07-04T05:40:33.985Z,6.07
2017-07-04T05:43:00.657Z,5.55
2017-07-04T05:45:27.347Z,6.20
2017-07-04T05:47:54.858Z,5.30
2017-07-04T05:50:21.499Z,4.75
2017-07-04T05:52:48.161Z,5.53
2017-07-04T05:55:14.823Z,4.25
2017-07-04T05:57:41.523Z,5.10
2017-07-04T06:00:08.218Z,4.68
2017-07-04T06:02:34.863Z,4.55
2017-07-04T06:05:01.529Z,4.20
2017-07-04T06:07:28.204Z,4.43
2017-07-04T06:09:54.848Z,4.85
2017-07-04T06:12:21.490Z,4.65
2017-07-04T06:14:48.202Z,5.85
2017-07-04T06:17:14.863Z,4.20
2017-07-04T06:19:41.501Z,3.97
2017-07-04T06:22:08.200Z,4.95
2017-07-04T06:24:34.862Z,3.83
2017-07-04T06:27:01.504Z,4.47
2017-07-04T06:29:28.212Z,3.97
2017-07-04T06:31:54.871Z,3.90
2017-07-04T06:34:21.532Z,3.35
2017-07-04T06:36:48.209Z,3.37
2017-07-04T06:39:14.898Z,3.20
2017-07-04T06:41:41.558Z,3.58
2017-07-04T06:44:08.269Z,3.30
2017-07-04T06:46:35.010Z,3.25
2017-07-04T06:49:01.715Z,3.90
2017-07-04T06:51:28.391Z,3.90
2017-07-04T06:53:55.051Z,3.35
2017-07-04T06:56:21.696Z,3.35
2017-07-04T06:58:48.414Z,3.25
2017-07-04T07:01:15.156Z,4.03
2017-07-04T07:03:41.799Z,3.03
2017-07-04T07:06:08.499Z,3.05
2017-07-04T07:08:35.168Z,2.72
2017-07-04T07:11:01.826Z,3.70
2017-07-04T07:13:28.567Z,3.20
2017-07-04T07:15:55.217Z,2.92
2017-07-04T07:18:21.856Z,3.35
2017-07-04T07:20:48.538Z,2.83
2017-07-04T07:23:15.215Z,2.60
2017-07-04T07:25:41.950Z,2.92
2017-07-04T07:28:08.697Z,3.20
2017-07-04T07:30:35.337Z,3.33
2017-07-04T07:33:01.994Z,2.75
2017-07-04T07:35:28.660Z,3.00
2017-07-04T07:37:55.300Z,3.00
2017-07-04T07:40:21.944Z,2.78
2017-07-04T07:42:48.635Z,2.80
2017-07-04T07:45:15.277Z,2.90
2017-07-04T07:47:42.017Z,3.37
2017-07-04T07:50:08.702Z,3.03
2017-07-04T07:52:35.406Z,3.28
2017-07-04T07:55:02.047Z,3.17
2017-07-04T07:57:28.743Z,4.32
2017-07-04T07:59:55.389Z,2.70
2017-07-04T08:02:22.050Z,3.00
2017-07-04T08:04:48.718Z,2.60
2017-07-04T08:07:15.438Z,2.30
2017-07-04T08:09:42.187Z,2.28
2017-07-04T08:12:08.860Z,2.67
2017-07-04T08:14:35.566Z,2.25
2017-07-04T08:17:02.208Z,2.55
2017-07-04T08:19:28.868Z,2.33
2017-07-04T08:21:55.578Z,1.98
2017-07-04T08:24:22.225Z,2.25
2017-07-04T08:26:48.953Z,2.42
2017-07-04T08:29:15.804Z,1.90
2017-07-04T08:31:42.555Z,2.42
2017-07-04T08:34:09.388Z,2.08
2017-07-04T08:36:36.037Z,2.67
2017-07-04T08:39:02.682Z,2.80
2017-07-04T08:41:29.362Z,2.15
2017-07-04T08:43:56.014Z,2.10
2017-07-04T08:46:22.657Z,1.83
2017-07-04T08:48:49.448Z,2.22
2017-07-04T08:51:16.100Z,2.83
2017-07-04T08:53:42.749Z,2.83
2017-07-04T08:56:09.446Z,2.47
2017-07-04T08:58:36.103Z,3.05
2017-07-04T09:01:02.770Z,2.70
2017-07-04T09:03:29.475Z,3.60
2017-07-04T09:05:56.209Z,2.40
2017-07-04T09:08:22.853Z,2.42
2017-07-04T09:10:49.535Z,2.95
2017-07-04T09:13:16.332Z,2.50
2017-07-04T09:15:43.083Z,2.50
2017-07-04T09:18:09.816Z,2.67
2017-07-04T09:20:36.475Z,2.42
2017-07-04T09:23:03.183Z,3.15
2017-07-04T09:25:29.847Z,2.65
2017-07-04T09:27:56.583Z,2.75
2017-07-04T09:30:23.325Z,2.97
2017-07-04T09:32:49.997Z,2.60
2017-07-04T09:35:16.704Z,2.70
2017-07-04T09:37:43.349Z,2.35
2017-07-04T09:40:10.035Z,2.42
2017-07-04T09:42:36.694Z,2.70
2017-07-04T09:45:03.336Z,2.70
2017-07-04T09:47:30.056Z,2.30
2017-07-04T09:49:56.681Z,2.80
2017-07-04T09:52:23.339Z,2.65
2017-07-04T09:54:50.116Z,2.95
2017-07-04T09:57:16.866Z,2.15
2017-07-04T09:59:43.595Z,2.80
2017-07-04T10:02:10.347Z,3.30
2017-07-04T10:04:36.991Z,2.50
2017-07-04T10:07:03.731Z,2.30
2017-07-04T10:09:30.463Z,2.70
2017-07-04T10:11:57.211Z,2.80
2017-07-04T10:14:23.955Z,2.58
2017-07-04T10:16:50.693Z,2.40
2017-07-04T10:19:17.339Z,2.67
2017-07-04T10:21:44.172Z,3.00
2017-07-04T10:24:10.846Z,2.92
2017-07-04T10:26:37.494Z,2.37
2017-07-04T10:29:04.160Z,2.15
2017-07-04T10:31:30.854Z,2.62
2017-07-04T10:33:57.580Z,2.60
2017-07-04T10:36:24.312Z,1.98
2017-07-04T10:38:51.155Z,2.35
2017-07-04T10:41:18.001Z,2.40
2017-07-04T10:43:44.735Z,3.10
2017-07-04T10:46:11.395Z,2.45
2017-07-04T10:48:38.124Z,2.78
2017-07-04T10:51:04.767Z,2.70
2017-07-04T10:53:31.517Z,2.42
2017-07-04T10:55:58.247Z,2.70
2017-07-04T10:58:24.911Z,2.15
2017-07-04T11:00:51.616Z,3.28
2017-07-04T11:03:18.265Z,2.95
2017-07-04T11:05:44.908Z,2.53
2017-07-04T11:08:11.604Z,2.60
2017-07-04T11:10:38.266Z,3.03
2017-07-04T11:13:05.002Z,2.50
2017-07-04T11:15:31.668Z,2.67
2017-07-04T11:17:58.309Z,2.97
2017-07-04T11:20:25.058Z,2.78
2017-07-04T11:22:51.790Z,2.80
2017-07-04T11:25:18.523Z,2.70
2017-07-04T11:27:45.278Z,2.65
2017-07-04T11:30:11.956Z,2.70
2017-07-04T11:32:38.650Z,2.50
2017-07-04T11:35:05.385Z,2.50
2017-07-04T11:37:32.132Z,2.70
2017-07-04T11:39:58.871Z,3.00
2017-07-04T11:42:25.521Z,3.15
2017-07-04T11:44:52.211Z,2.90
2017-07-04T11:47:18.875Z,2.95
2017-07-04T11:49:45.637Z,3.30
2017-07-04T11:52:12.321Z,2.80
2017-07-04T11:54:39.023Z,2.92
2017-07-04T11:57:05.686Z,3.47
2017-07-04T11:59:32.387Z,2.45
2017-07-04T12:01:59.035Z,2.70
2017-07-04T12:04:25.698Z,3.30
2017-07-04T12:06:52.395Z,2.35
2017-07-04T12:09:19.064Z,3.70
2017-07-04T12:11:45.798Z,2.63
2017-07-04T12:14:12.474Z,2.37
2017-07-04T12:16:39.126Z,2.67
2017-07-04T12:19:05.790Z,2.10
2017-07-04T12:21:32.661Z,2.43
2017-07-04T12:23:59.304Z,2.60
2017-07-04T12:26:26.046Z,3.27
2017-07-04T12:28:52.724Z,2.33
2017-07-04T12:31:19.643Z,2.70
2017-07-04T12:33:46.375Z,2.10
2017-07-04T12:36:13.724Z,2.30
2017-07-04T12:38:40.774Z,1.87
2017-07-04T12:41:08.847Z,2.30
2017-07-04T12:43:36.303Z,2.70
2017-07-04T12:46:04.883Z,2.60
2017-07-04T12:48:32.666Z,2.17
2017-07-04T12:51:00.216Z,2.13
2017-07-04T12:53:27.468Z,2.10
2017-07-04T12:55:54.517Z,1.60
2017-07-04T12:58:21.771Z,1.73
2017-07-04T13:00:48.440Z,2.23
2017-07-04T13:03:15.099Z,2.57
2017-07-04T13:05:41.900Z,1.80
2017-07-04T13:08:08.558Z,2.10
2017-07-04T13:10:35.264Z,2.20
2017-07-04T13:13:01.964Z,1.67
2017-07-04T13:15:28.612Z,2.30
2017-07-04T13:17:55.294Z,2.10
2017-07-04T13:20:22.042Z,2.00
2017-07-04T13:22:48.693Z,1.73
2017-07-04T13:25:15.342Z,1.50
2017-07-04T13:27:42.044Z,1.73
2017-07-04T13:30:08.699Z,1.73
2017-07-04T13:32:35.356Z,2.10
2017-07-04T13:35:02.068Z,1.67
2017-07-04T13:37:28.823Z,1.70
2017-07-04T13:39:55.563Z,1.83
2017-07-04T13:42:22.305Z,2.00
2017-07-04T13:44:48.967Z,2.03
2017-07-04T13:47:15.626Z,1.90
2017-07-04T13:49:42.376Z,2.20
2017-07-04T13:52:09.054Z,2.10
2017-07-04T13:54:35.693Z,2.17
2017-07-04T13:57:02.366Z,1.90
2017-07-04T13:59:29.087Z,2.07
2017-07-04T14:01:55.751Z,2.20
2017-07-04T14:04:22.444Z,2.03
2017-07-04T14:06:49.192Z,2.43
2017-07-04T14:09:15.835Z,2.33
2017-07-04T14:11:42.500Z,1.90
2017-07-04T14:14:09.148Z,1.70
2017-07-04T14:16:35.868Z,1.80
2017-07-04T14:19:02.561Z,1.53
2017-07-04T14:21:29.205Z,1.60
2017-07-04T14:23:55.845Z,2.03
2017-07-04T14:26:22.503Z,1.60
2017-07-04T14:28:49.140Z,2.00
2017-07-04T14:31:15.784Z,2.03
2017-07-04T14:33:42.458Z,1.83
2017-07-04T14:36:09.114Z,1.80
2017-07-04T14:38:35.814Z,1.70
2017-07-04T14:41:02.559Z,2.27
2017-07-04T14:43:29.219Z,2.23
2017-07-04T14:45:55.866Z,1.43
2017-07-04T14:48:22.549Z,1.83
2017-07-04T14:50:49.214Z,1.80
2017-07-04T14:53:15.884Z,1.67
2017-07-04T14:55:42.575Z,1.93
2017-07-04T14:58:09.220Z,1.70
2017-07-04T15:00:35.973Z,1.63
2017-07-04T15:03:02.713Z,1.47
2017-07-04T15:05:29.562Z,1.13
2017-07-04T15:07:56.203Z,1.43
2017-07-04T15:10:22.932Z,1.63
2017-07-04T15:12:49.587Z,2.03
2017-07-04T15:15:16.228Z,1.80
2017-07-04T15:17:42.918Z,1.90
2017-07-04T15:20:09.583Z,1.70
2017-07-04T15:22:36.232Z,2.17
2017-07-04T15:25:02.909Z,1.90
2017-07-04T15:27:29.571Z,1.63
2017-07-04T15:29:56.251Z,1.53
2017-07-04T15:32:22.993Z,1.80
2017-07-04T15:34:49.752Z,2.37
2017-07-04T15:37:16.473Z,2.00
2017-07-04T15:39:43.136Z,2.30
2017-07-04T15:42:09.780Z,1.53
2017-07-04T15:44:36.512Z,1.60
2017-07-04T15:47:03.247Z,1.90
2017-07-04T15:49:29.982Z,2.00
2017-07-04T15:51:56.721Z,2.07
2017-07-04T15:54:23.460Z,1.87
2017-07-04T15:56:50.131Z,1.90
2017-07-04T15:59:16.850Z,2.00
2017-07-04T16:01:43.911Z,3.97
2017-07-04T16:04:10.560Z,1.70
2017-07-04T16:06:37.272Z,1.83
2017-07-04T16:09:03.944Z,2.33
2017-07-04T16:11:30.652Z,2.30
2017-07-04T16:13:57.319Z,3.00
2017-07-04T16:16:24.033Z,2.13
2017-07-04T16:18:50.773Z,2.30
2017-07-04T16:21:17.412Z,2.50
2017-07-04T16:23:44.100Z,1.87
2017-07-04T16:26:10.759Z,2.60
2017-07-04T16:28:37.419Z,2.30
2017-07-04T16:31:04.089Z,2.17
2017-07-04T16:33:30.747Z,1.93
2017-07-04T16:35:57.407Z,2.00
2017-07-04T16:38:24.110Z,1.93
2017-07-04T16:40:50.770Z,2.30
2017-07-04T16:43:17.431Z,2.10
2017-07-04T16:45:44.231Z,2.33
2017-07-04T16:48:10.879Z,2.53
2017-07-04T16:50:37.592Z,2.00
2017-07-04T16:53:04.303Z,2.20
2017-07-04T16:55:30.972Z,3.07
2017-07-04T16:57:57.735Z,2.97
2017-07-04T17:00:24.474Z,2.90
2017-07-04T17:02:51.120Z,2.80
2017-07-04T17:05:17.764Z,2.47
2017-07-04T17:07:44.491Z,2.90
2017-07-04T17:10:11.235Z,2.80
2017-07-04T17:12:37.970Z,2.50
2017-07-04T17:15:04.645Z,2.30
2017-07-04T17:17:31.302Z,3.27
2017-07-04T17:19:57.991Z,3.10
2017-07-04T17:22:24.733Z,2.97
2017-07-04T17:24:51.391Z,2.80
2017-07-04T17:27:18.028Z,2.47
2017-07-04T17:29:44.718Z,3.30
2017-07-04T17:32:11.380Z,4.13
2017-07-04T17:34:38.120Z,2.93
2017-07-04T17:37:04.809Z,2.90
2017-07-04T17:39:31.444Z,3.17
2017-07-04T17:41:58.116Z,3.00
2017-07-04T17:44:24.815Z,2.40
2017-07-04T17:46:51.489Z,3.10
2017-07-04T17:49:18.279Z,3.65
2017-07-04T17:51:44.972Z,3.00
2017-07-04T17:54:11.754Z,3.40
2017-07-04T17:56:38.499Z,3.47
2017-07-04T17:59:05.228Z,3.10
2017-07-04T18:01:31.990Z,3.40
2017-07-04T18:03:58.707Z,3.80
2017-07-04T18:06:25.470Z,3.17
2017-07-04T18:08:52.134Z,2.97
2017-07-04T18:11:18.784Z,3.90
2017-07-04T18:13:45.459Z,3.22
2017-07-04T18:16:12.111Z,2.78
2017-07-04T18:18:38.858Z,2.90
2017-07-04T18:21:05.559Z,3.85
2017-07-04T18:23:32.232Z,3.28
2017-07-04T18:25:58.989Z,4.05
2017-07-04T18:28:26.547Z,3.67
2017-07-04T18:30:53.188Z,3.70
2017-07-04T18:33:19.915Z,3.75
2017-07-04T18:35:46.600Z,3.67
2017-07-04T18:38:13.244Z,3.60
2017-07-04T18:40:39.942Z,4.03
2017-07-04T18:43:06.695Z,3.78
2017-07-04T18:45:33.426Z,3.30
2017-07-04T18:48:00.075Z,3.72
2017-07-04T18:50:26.909Z,4.05
2017-07-04T18:52:53.548Z,3.70
2017-07-04T18:55:20.191Z,3.45
2017-07-04T18:57:46.867Z,3.60
2017-07-04T19:00:13.578Z,3.95
2017-07-04T19:02:40.229Z,3.97
2017-07-04T19:05:06.945Z,4.50
2017-07-04T19:07:33.585Z,4.20
2017-07-04T19:10:00.228Z,3.87
2017-07-04T19:12:26.979Z,4.40
2017-07-04T19:14:53.715Z,4.55
2017-07-04T19:17:20.392Z,4.10
2017-07-04T19:19:47.085Z,4.00
2017-07-04T19:22:13.736Z,3.80
2017-07-04T19:24:40.379Z,4.12
2017-07-04T19:27:07.101Z,4.70
2017-07-04T19:29:33.862Z,4.60
2017-07-04T19:32:03.845Z,4.10
2017-07-04T19:34:30.512Z,4.70
2017-07-04T19:36:57.160Z,4.20
2017-07-04T19:39:23.819Z,3.95
2017-07-04T19:41:50.484Z,4.87
2017-07-04T19:44:17.133Z,4.70
2017-07-04T19:46:43.798Z,5.15
2017-07-04T19:49:10.559Z,4.28
2017-07-04T19:51:37.289Z,4.90
2017-07-04T19:54:03.940Z,4.55
2017-07-04T19:56:30.618Z,4.43
2017-07-04T19:58:57.288Z,4.78
2017-07-04T20:01:24.044Z,5.28
2017-07-04T20:03:50.743Z,4.68
2017-07-04T20:06:17.439Z,5.87
2017-07-04T20:08:44.095Z,5.35
2017-07-04T20:11:10.799Z,6.70
2017-07-04T20:13:37.553Z,7.20
2017-07-04T20:16:04.200Z,5.87
2017-07-04T20:18:30.879Z,7.85
2017-07-04T20:20:57.525Z,6.60
2017-07-04T20:23:24.219Z,6.85
2017-07-04T20:25:50.946Z,7.43
2017-07-04T20:28:17.683Z,7.95
2017-07-04T20:30:44.336Z,6.07
2017-07-04T20:33:11.003Z,6.22
2017-07-04T20:35:37.672Z,7.20
2017-07-04T20:38:04.316Z,6.55
2017-07-04T20:40:31.016Z,5.45
2017-07-04T20:42:57.679Z,6.43
2017-07-04T20:45:24.366Z,7.30
2017-07-04T20:47:51.127Z,6.37
2017-07-04T20:50:17.791Z,6.50
2017-07-04T20:52:44.503Z,6.18
2017-07-04T20:55:11.180Z,6.60
2017-07-04T20:57:37.884Z,6.57
2017-07-04T21:00:04.719Z,7.47
2017-07-04T21:02:32.293Z,6.57
2017-07-04T21:04:58.932Z,6.20
2017-07-04T21:07:25.572Z,6.37
2017-07-04T21:09:52.287Z,6.30
2017-07-04T21:12:19.051Z,5.72
2017-07-04T21:14:45.706Z,6.25
2017-07-04T21:17:12.423Z,6.87
2017-07-04T21:19:39.084Z,6.78
2017-07-04T21:22:05.747Z,6.22
2017-07-04T21:24:32.428Z,7.22
2017-07-04T21:26:59.069Z,6.65
2017-07-04T21:29:25.711Z,7.32
2017-07-04T21:31:52.420Z,6.57
2017-07-04T21:34:19.088Z,7.85
2017-07-04T21:36:45.727Z,7.12
2017-07-04T21:39:12.463Z,6.75
2017-07-04T21:41:39.113Z,8.25
2017-07-04T21:44:05.764Z,6.85
2017-07-04T21:46:32.488Z,8.15
2017-07-04T21:48:59.249Z,7.32
2017-07-04T21:51:25.895Z,6.62
2017-07-04T21:53:52.613Z,7.57
2017-07-04T21:56:19.366Z,7.70
2017-07-04T21:58:46.088Z,6.40
2017-07-04T22:01:12.851Z,6.68
2017-07-04T22:03:39.576Z,7.25
2017-07-04T22:06:06.216Z,8.40
2017-07-04T22:08:32.884Z,7.53
2017-07-04T22:10:59.539Z,7.82
2017-07-04T22:13:26.235Z,7.93
2017-07-04T22:15:52.976Z,8.82
2017-07-04T22:18:19.736Z,7.82
2017-07-04T22:20:46.483Z,7.30
2017-07-04T22:23:13.218Z,7.10
2017-07-04T22:25:39.946Z,7.85
2017-07-04T22:28:06.683Z,7.70
2017-07-04T22:30:33.374Z,8.43
2017-07-04T22:33:00.075Z,8.23
2017-07-04T22:35:26.829Z,6.95
2017-07-04T22:37:53.571Z,8.00
2017-07-04T22:40:20.218Z,7.82
2017-07-04T22:42:46.937Z,7.03
2017-07-04T22:45:13.599Z,7.07
2017-07-04T22:47:40.308Z,6.75
2017-07-04T22:50:07.058Z,8.30
2017-07-04T22:52:33.812Z,7.40
2017-07-04T22:55:00.478Z,6.78
2017-07-04T22:57:27.181Z,7.40
2017-07-04T22:59:53.927Z,7.70
2017-07-04T23:02:20.568Z,7.57
2017-07-04T23:04:47.209Z,6.90
2017-07-04T23:07:13.955Z,7.80
2017-07-04T23:09:40.691Z,7.10
2017-07-04T23:12:07.435Z,6.68
2017-07-04T23:14:34.114Z,7.07
2017-07-04T23:17:00.814Z,6.93
2017-07-04T23:19:27.560Z,7.35
2017-07-04T23:21:54.232Z,7.68
2017-07-04T23:24:20.927Z,7.72
2017-07-04T23:26:47.576Z,8.10
2017-07-04T23:29:14.319Z,8.50
2017-07-04T23:31:40.983Z,8.38
2017-07-04T23:34:07.791Z,7.87
2017-07-04T23:36:34.531Z,7.85
2017-07-04T23:39:01.265Z,7.85
2017-07-04T23:41:27.908Z,7.05
2017-07-04T23:43:54.757Z,7.32
2017-07-04T23:46:21.400Z,8.07
2017-07-04T23:48:48.059Z,8.57
2017-07-04T23:51:14.768Z,8.40
2017-07-04T23:53:41.519Z,7.57
2017-07-04T23:56:08.160Z,7.68
2017-07-04T23:58:34.843Z,7.65
